.
WxDataArchive / Data Records for 2014-12-11
2014-12-10 December 2014 2014-12-12

Data Records for Thursday, 11 December 2014

Time	Temp	Chill	HIndex	Humid	Dewpt	 Wind 	HiWind	WindDir	Rain 	Barom
-----	----	-----	------	-----	-----	------	------	-------	-----	-----
00:00	23.8	23.8	23.8	88	20.8	0	1	292	0.00	30.189 
00:05	23.8	23.8	23.8	88	20.8	0	0	---	0.00	30.189 
00:10	23.8	23.8	23.8	88	20.8	0	0	---	0.00	30.189 
00:15	23.6	23.6	23.6	88	20.6	0	0	---	0.00	30.184 
00:20	23.5	23.5	23.5	88	20.5	0	0	---	0.00	30.184 
00:25	23.5	23.5	23.5	88	20.5	0	0	---	0.00	30.184 
00:30	23.5	23.5	23.5	88	20.5	0	0	---	0.00	30.176 
00:35	23.3	23.3	23.3	88	20.3	0	1	292	0.00	30.176 
00:40	23.5	23.5	23.5	88	20.5	0	0	---	0.00	30.176 
00:45	23.3	23.3	23.3	88	20.3	0	0	---	0.00	30.175 
00:50	23.3	23.3	23.3	88	20.3	0	0	---	0.00	30.175 
00:55	23.3	23.3	23.3	88	20.3	0	1	292	0.00	30.175 
01:00	23.3	23.3	23.3	88	20.3	0	1	292	0.00	30.169 
01:05	23.3	23.3	23.3	88	20.3	0	1	292	0.00	30.169 
01:10	23.5	23.5	23.5	88	20.5	0	1	292	0.00	30.169 
01:15	23.5	23.5	23.5	88	20.5	0	2	292	0.00	30.158 
01:20	23.5	23.5	23.5	88	20.5	0	2	292	0.00	30.158 
01:25	23.5	23.5	23.5	88	20.5	0	1	292	0.00	30.158 
01:30	23.5	23.5	23.5	88	20.5	0	2	292	0.00	30.154 
01:35	23.5	23.5	23.5	88	20.5	0	1	292	0.00	30.154 
01:40	23.5	23.5	23.5	88	20.5	0	2	292	0.00	30.154 
01:45	23.5	23.5	23.5	88	20.5	0	2	292	0.00	30.151 
01:50	23.5	23.5	23.5	88	20.5	0	1	292	0.00	30.151 
01:55	23.3	23.3	23.3	88	20.3	0	1	292	0.00	30.151 
02:00	23.3	23.3	23.3	87	20.0	0	2	292	0.00	30.152 
02:05	23.3	23.3	23.3	87	20.0	0	1	292	0.00	30.152 
02:10	23.3	23.3	23.3	87	20.0	0	1	292	0.00	30.152 
02:15	23.2	23.2	23.2	87	19.9	0	2	292	0.00	30.145 
02:20	23.2	23.2	23.2	87	19.9	0	2	292	0.00	30.145 
02:25	23.2	23.2	23.2	87	19.9	0	2	292	0.00	30.145 
02:30	23.2	23.2	23.2	87	19.9	0	2	292	0.00	30.143 
02:35	23.2	23.2	23.2	87	19.9	0	2	292	0.00	30.143 
02:40	23.2	23.2	23.2	87	19.9	0	1	292	0.00	30.143 
02:45	23.0	23.0	23.0	87	19.7	0	1	292	0.00	30.155 
02:50	23.0	23.0	23.0	87	19.7	0	1	292	0.00	30.155 
02:55	23.0	23.0	23.0	86	19.4	0	1	292	0.00	30.155 
03:00	23.0	23.0	23.0	86	19.4	0	2	292	0.00	30.146 
03:05	23.0	23.0	23.0	86	19.4	1	2	292	0.00	30.146 
03:10	23.0	23.0	23.0	86	19.4	1	2	292	0.00	30.146 
03:15	23.0	23.0	23.0	86	19.4	0	2	292	0.00	30.146 
03:20	23.0	23.0	23.0	86	19.4	0	2	292	0.00	30.146 
03:25	23.0	23.0	23.0	86	19.4	0	2	292	0.00	30.146 
03:30	22.9	22.9	22.9	86	19.4	0	2	292	0.00	30.150 
03:35	22.9	22.9	22.9	86	19.4	1	2	292	0.00	30.150 
03:40	22.9	22.9	22.9	86	19.4	0	2	292	0.00	30.150 
03:45	22.9	22.9	22.9	85	19.1	0	2	292	0.00	30.150 
03:50	22.9	22.9	22.9	85	19.1	0	1	292	0.00	30.150 
03:55	22.7	22.7	22.7	85	18.9	0	1	292	0.00	30.150 
04:00	22.7	22.7	22.7	85	18.9	0	2	292	0.00	30.159 
04:05	22.7	22.7	22.7	85	18.9	0	2	292	0.00	30.159 
04:10	22.7	22.7	22.7	85	18.9	0	2	292	0.00	30.159 
04:15	22.5	22.5	22.5	85	18.7	0	2	292	0.00	30.161 
04:20	22.5	22.5	22.5	85	18.7	0	2	292	0.00	30.161 
04:25	22.5	22.5	22.5	85	18.7	1	2	292	0.00	30.161 
04:30	22.5	22.5	22.5	85	18.7	0	4	292	0.00	30.167 
04:35	22.5	22.5	22.5	85	18.7	1	2	292	0.00	30.167 
04:40	22.5	22.5	22.5	85	18.7	1	2	292	0.00	30.167 
04:45	22.4	22.4	22.4	84	18.3	0	2	292	0.00	30.169 
04:50	22.4	22.4	22.4	84	18.3	0	2	292	0.00	30.169 
04:55	22.2	22.2	22.2	84	18.1	0	2	292	0.00	30.169 
05:00	22.2	22.2	22.2	84	18.1	1	2	292	0.00	30.176 
05:05	22.2	22.2	22.2	84	18.1	1	3	292	0.00	30.176 
05:10	22.1	22.1	22.1	83	17.7	0	2	292	0.00	30.176 
05:15	22.1	22.1	22.1	83	17.7	0	2	292	0.00	30.177 
05:20	21.9	21.9	21.9	83	17.5	0	2	292	0.00	30.177 
05:25	21.9	21.9	21.9	83	17.5	0	2	292	0.00	30.177 
05:30	21.9	21.9	21.9	82	17.3	1	3	292	0.00	30.183 
05:35	21.9	21.9	21.9	82	17.3	1	2	315	0.00	30.183 
05:40	21.9	21.9	21.9	81	17.0	0	3	315	0.00	30.183 
05:45	21.9	21.9	21.9	81	17.0	1	3	315	0.00	30.187 
05:50	21.9	21.9	21.9	80	16.7	0	2	315	0.00	30.187 
05:55	21.9	21.9	21.9	80	16.7	1	3	315	0.00	30.187 
06:00	22.1	22.1	22.1	79	16.6	1	3	292	0.00	30.181 
06:05	22.1	22.1	22.1	79	16.6	0	3	292	0.00	30.181 
06:10	22.1	22.1	22.1	79	16.6	0	2	292	0.00	30.181 
06:15	22.1	22.1	22.1	79	16.6	0	3	292	0.00	30.194 
06:20	22.2	22.2	22.2	79	16.7	0	1	292	0.00	30.194 
06:25	22.2	22.2	22.2	79	16.7	0	2	292	0.00	30.194 
06:30	22.2	22.2	22.2	80	17.0	0	2	292	0.00	30.193 
06:35	22.2	22.2	22.2	80	17.0	0	2	292	0.00	30.193 
06:40	22.2	22.2	22.2	81	17.3	0	2	292	0.00	30.193 
06:45	22.4	22.4	22.4	81	17.5	0	2	292	0.00	30.194 
06:50	22.4	22.4	22.4	81	17.5	0	3	292	0.00	30.194 
06:55	22.4	22.4	22.4	81	17.5	0	2	292	0.00	30.194 
07:00	22.5	22.5	22.5	82	17.9	0	2	292	0.00	30.194 
07:05	22.5	22.5	22.5	82	17.9	0	2	292	0.00	30.194 
07:10	22.5	22.5	22.5	83	18.1	0	2	292	0.00	30.194 
07:15	22.7	22.7	22.7	83	18.3	0	1	292	0.00	30.196 
07:20	22.7	22.7	22.7	83	18.3	0	1	292	0.00	30.196 
07:25	22.9	22.9	22.9	84	18.8	0	1	292	0.00	30.196 
07:30	22.9	22.9	22.9	84	18.8	0	2	292	0.00	30.196 
07:35	22.9	22.9	22.9	84	18.8	0	2	292	0.00	30.196 
07:40	22.9	22.9	22.9	84	18.8	0	1	292	0.00	30.196 
07:45	22.9	22.9	22.9	84	18.8	0	2	292	0.00	30.198 
07:50	22.9	22.9	22.9	84	18.8	0	1	292	0.00	30.198 
07:55	22.9	22.9	22.9	84	18.8	0	1	292	0.00	30.198 
08:00	22.9	22.9	22.9	85	19.1	0	1	292	0.00	30.207 
08:05	22.9	22.9	22.9	85	19.1	0	2	292	0.00	30.207 
08:10	23.0	23.0	23.0	85	19.2	0	2	292	0.00	30.207 
08:15	23.2	23.2	23.2	85	19.4	0	2	292	0.00	30.213 
08:20	23.3	23.3	23.3	86	19.7	1	2	292	0.00	30.213 
08:25	23.5	23.5	23.5	86	19.9	1	3	292	0.00	30.213 
08:30	23.6	23.6	23.6	86	20.0	0	2	292	0.00	30.218 
08:35	23.8	23.8	23.8	86	20.2	0	2	292	0.00	30.218 
08:40	24.1	24.1	24.1	86	20.5	1	2	292	0.00	30.218 
08:45	24.2	24.2	24.2	86	20.6	1	3	292	0.00	30.213 
08:50	24.5	24.5	24.5	86	20.9	1	2	292	0.00	30.213 
08:55	24.7	24.7	24.7	86	21.1	1	4	292	0.00	30.213 
09:00	25.0	25.0	25.0	86	21.4	1	3	315	0.00	30.216 
09:05	25.3	25.3	25.3	86	21.7	0	2	315	0.00	30.216 
09:10	25.6	25.6	25.6	86	22.0	1	3	315	0.00	30.216 
09:15	25.7	25.7	25.7	86	22.1	1	4	270	0.00	30.225 
09:20	26.0	26.0	26.0	86	22.4	1	4	270	0.00	30.225 
09:25	26.3	26.3	26.3	85	22.4	2	5	292	0.00	30.225 
09:30	26.6	26.6	26.6	85	22.7	1	4	292	0.00	30.226 
09:35	26.9	26.9	26.9	85	23.0	2	4	292	0.00	30.226 
09:40	27.2	27.2	27.2	85	23.3	1	5	315	0.00	30.226 
09:45	27.5	27.5	27.5	84	23.3	1	5	338	0.00	30.224 
09:50	27.8	27.8	27.8	84	23.6	1	4	292	0.00	30.224 
09:55	28.1	28.1	28.1	84	23.9	2	5	292	0.00	30.224 
10:00	28.4	28.4	28.4	83	23.9	2	6	292	0.00	30.225 
10:05	28.7	28.7	28.7	83	24.2	1	3	315	0.00	30.225 
10:10	29.0	29.0	29.0	82	24.2	1	5	315	0.00	30.225 
10:15	29.3	29.3	29.3	82	24.5	1	3	292	0.00	30.230 
10:20	29.4	29.4	29.4	81	24.3	2	4	292	0.00	30.230 
10:25	29.8	29.8	29.8	81	24.7	1	5	338	0.00	30.230 
10:30	30.1	30.1	30.1	80	24.7	3	6	315	0.00	30.236 
10:35	30.4	30.4	30.4	79	24.7	3	9	315	0.00	30.236 
10:40	30.6	30.6	30.6	79	24.9	2	5	315	0.00	30.236 
10:45	31.0	31.0	31.0	79	25.3	1	5	292	0.00	30.240 
10:50	31.2	31.2	31.2	78	25.2	2	6	338	0.00	30.240 
10:55	31.3	31.3	31.3	77	24.9	2	7	315	0.00	30.240 
11:00	31.6	31.6	31.6	77	25.2	2	7	292	0.00	30.236 
11:05	31.8	31.8	31.8	76	25.1	2	5	315	0.00	30.236 
11:10	32.1	32.1	32.1	76	25.4	1	3	338	0.00	30.236 
11:15	32.5	32.5	32.5	75	25.5	1	4	292	0.00	30.227 
11:20	32.5	32.5	32.5	73	24.8	2	6	292	0.00	30.227 
11:25	32.7	32.7	32.7	73	25.0	2	6	270	0.00	30.227 
11:30	32.8	32.8	32.8	72	24.8	2	5	270	0.00	30.222 
11:35	32.9	32.9	32.9	71	24.5	2	6	270	0.00	30.222 
11:40	33.1	33.1	33.1	70	24.4	2	5	338	0.00	30.222 
11:45	33.4	33.4	33.4	69	24.3	2	6	338	0.00	30.218 
11:50	33.5	33.5	33.5	70	24.8	1	4	315	0.00	30.218 
11:55	34.0	34.0	34.0	69	24.9	1	4	270	0.00	30.218 
12:00	34.0	34.0	34.0	67	24.2	2	5	315	0.00	30.208 
12:05	34.1	34.1	34.1	67	24.3	1	4	315	0.00	30.208 
12:10	34.3	34.3	34.3	68	24.9	2	5	292	0.00	30.208 
12:15	34.4	34.4	34.4	68	24.9	2	4	270	0.00	30.208 
12:20	34.7	34.7	34.7	68	25.2	1	4	292	0.00	30.208 
12:25	34.9	34.9	34.9	67	25.1	1	4	292	0.00	30.208 
12:30	34.9	34.9	34.9	66	24.7	3	6	338	0.00	30.202 
12:35	34.7	34.7	34.7	65	24.2	2	5	315	0.00	30.202 
12:40	34.9	34.9	34.9	66	24.7	2	5	270	0.00	30.202 
12:45	35.3	35.3	35.3	66	25.1	2	5	270	0.00	30.186 
12:50	35.5	35.5	35.5	65	24.9	2	5	270	0.00	30.186 
12:55	35.6	35.6	35.6	65	25.0	2	4	270	0.00	30.186 
13:00	35.8	35.8	35.8	65	25.2	2	5	270	0.00	30.175 
13:05	35.9	35.9	35.9	65	25.3	2	5	270	0.00	30.175 
13:10	35.9	35.9	35.9	66	25.7	2	6	270	0.00	30.175 
13:15	35.8	35.8	35.8	67	25.9	3	6	270	0.00	30.171 
13:20	35.8	35.8	35.8	65	25.2	2	4	270	0.00	30.171 
13:25	35.6	35.6	35.6	65	25.0	3	5	292	0.00	30.171 
13:30	35.5	35.5	35.5	63	24.2	3	6	292	0.00	30.167 
13:35	35.8	35.8	35.8	66	25.6	2	5	315	0.00	30.167 
13:40	35.9	35.9	35.9	65	25.3	2	4	270	0.00	30.167 
13:45	35.6	35.6	35.6	65	25.0	1	4	292	0.00	30.169 
13:50	35.8	35.8	35.8	65	25.2	1	4	270	0.00	30.169 
13:55	35.5	35.5	35.5	64	24.5	2	5	292	0.00	30.169 
14:00	35.6	35.6	35.6	65	25.0	2	5	270	0.00	30.170 
14:05	35.6	35.6	35.6	65	25.0	2	4	270	0.00	30.170 
14:10	35.8	35.8	35.8	66	25.6	1	3	270	0.00	30.170 
14:15	35.8	35.8	35.8	64	24.8	1	5	292	0.00	30.171 
14:20	35.5	35.5	35.5	62	23.8	3	6	292	0.00	30.171 
14:25	35.3	35.3	35.3	63	24.0	2	4	270	0.00	30.171 
14:30	35.3	35.3	35.3	65	24.7	1	4	292	0.00	30.171 
14:35	35.6	35.6	35.6	65	25.0	2	4	270	0.00	30.171 
14:40	35.6	35.6	35.6	63	24.3	2	5	270	0.00	30.171 
14:45	35.5	35.5	35.5	62	23.8	2	4	270	0.00	30.172 
14:50	35.3	35.3	35.3	62	23.6	2	5	270	0.00	30.172 
14:55	35.5	35.5	35.5	63	24.2	2	5	270	0.00	30.172 
15:00	35.5	35.5	35.5	62	23.8	2	5	270	0.00	30.171 
15:05	35.5	35.5	35.5	64	24.5	2	4	248	0.00	30.171 
15:10	35.5	35.5	35.5	63	24.2	2	4	248	0.00	30.171 
15:15	35.5	35.5	35.5	64	24.5	2	5	270	0.00	30.170 
15:20	35.5	35.5	35.5	64	24.5	2	4	292	0.00	30.170 
15:25	35.6	35.6	35.6	62	23.9	2	5	270	0.00	30.170 
15:30	35.3	35.3	35.3	62	23.6	2	6	270	0.00	30.163 
15:35	35.2	35.2	35.2	64	24.3	2	4	292	0.00	30.163 
15:40	35.3	35.3	35.3	63	24.0	2	4	248	0.00	30.163 
15:45	35.2	35.2	35.2	63	23.9	3	5	270	0.00	30.168 
15:50	35.0	35.0	35.0	64	24.1	2	4	270	0.00	30.168 
15:55	34.9	34.9	34.9	63	23.6	3	4	270	0.00	30.168 
16:00	34.9	34.9	34.9	63	23.6	2	5	270	0.00	30.172 
16:05	34.7	34.7	34.7	63	23.4	1	5	270	0.00	30.172 
16:10	34.6	34.6	34.6	63	23.3	2	5	270	0.00	30.172 
16:15	34.6	34.6	34.6	64	23.7	2	4	270	0.00	30.173 
16:20	34.6	34.6	34.6	64	23.7	2	5	292	0.00	30.173 
16:25	34.4	34.4	34.4	64	23.5	2	4	292	0.00	30.173 
16:30	34.4	34.4	34.4	65	23.9	2	7	338	0.00	30.175 
16:35	34.3	34.3	34.3	65	23.8	1	10	338	0.00	30.175 
16:40	34.1	34.1	34.1	66	23.9	1	4	270	0.00	30.175 
16:45	34.0	34.0	34.0	66	23.9	2	4	315	0.00	30.177 
16:50	33.8	33.8	33.8	67	24.0	1	3	292	0.00	30.177 
16:55	33.7	33.7	33.7	67	23.9	2	4	292	0.00	30.177 
17:00	33.7	33.7	33.7	68	24.3	1	4	248	0.00	30.180 
17:05	33.4	33.4	33.4	68	24.0	2	5	248	0.00	30.180 
17:10	33.2	33.2	33.2	68	23.8	2	4	248	0.00	30.180 
17:15	33.1	33.1	33.1	68	23.7	1	4	248	0.00	30.188 
17:20	32.9	32.9	32.9	68	23.5	1	5	270	0.00	30.188 
17:25	32.8	32.8	32.8	69	23.8	1	3	270	0.00	30.188 
17:30	32.7	32.7	32.7	69	23.7	1	3	270	0.00	30.191 
17:35	32.5	32.5	32.5	69	23.5	1	3	270	0.00	30.191 
17:40	32.4	32.4	32.4	69	23.4	1	3	270	0.00	30.191 
17:45	32.2	32.2	32.2	69	23.2	1	4	270	0.00	30.192 
17:50	32.1	32.1	32.1	70	23.4	0	3	270	0.00	30.192 
17:55	31.9	31.9	31.9	71	23.6	1	3	270	0.00	30.192 
18:00	31.8	31.8	31.8	71	23.5	1	3	270	0.00	30.193 
18:05	31.8	31.8	31.8	71	23.5	1	3	270	0.00	30.193 
18:10	31.6	31.6	31.6	72	23.6	1	3	270	0.00	30.193 
18:15	31.5	31.5	31.5	72	23.5	1	4	270	0.00	30.193 
18:20	31.5	31.5	31.5	73	23.9	1	3	270	0.00	30.193 
18:25	31.3	31.3	31.3	73	23.7	1	3	270	0.00	30.193 
18:30	31.2	31.2	31.2	73	23.6	1	3	270	0.00	30.199 
18:35	31.0	31.0	31.0	73	23.4	1	4	270	0.00	30.199 
18:40	31.0	31.0	31.0	74	23.7	1	3	270	0.00	30.199 
18:45	30.9	30.9	30.9	74	23.6	1	4	270	0.00	30.202 
18:50	30.7	30.7	30.7	74	23.4	1	3	270	0.00	30.202 
18:55	30.7	30.7	30.7	74	23.4	1	3	270	0.00	30.202 
19:00	30.6	30.6	30.6	74	23.3	1	3	270	0.00	30.198 
19:05	30.4	30.4	30.4	75	23.4	1	3	270	0.00	30.198 
19:10	30.3	30.3	30.3	75	23.3	0	1	270	0.00	30.198 
19:15	30.0	30.0	30.0	76	23.4	0	2	270	0.00	30.200 
19:20	30.0	30.0	30.0	77	23.7	1	3	270	0.00	30.200 
19:25	29.8	29.8	29.8	77	23.5	1	3	270	0.00	30.200 
19:30	29.7	29.7	29.7	77	23.4	1	4	270	0.00	30.207 
19:35	29.5	29.5	29.5	78	23.5	1	2	270	0.00	30.207 
19:40	29.4	29.4	29.4	78	23.4	0	3	270	0.00	30.207 
19:45	29.4	29.4	29.4	78	23.4	2	4	270	0.00	30.208 
19:50	29.4	29.4	29.4	78	23.4	1	4	270	0.00	30.208 
19:55	29.3	29.3	29.3	77	23.0	2	4	270	0.00	30.208 
20:00	29.3	29.3	29.3	77	23.0	1	4	270	0.00	30.209 
20:05	29.1	29.1	29.1	77	22.8	2	4	270	0.00	30.209 
20:10	29.1	29.1	29.1	77	22.8	2	4	270	0.00	30.209 
20:15	29.0	29.0	29.0	77	22.7	1	3	270	0.00	30.207 
20:20	28.8	28.8	28.8	77	22.5	2	3	270	0.00	30.207 
20:25	28.8	28.8	28.8	77	22.5	1	3	292	0.00	30.207 
20:30	28.7	28.7	28.7	78	22.7	2	4	270	0.00	30.207 
20:35	28.7	28.7	28.7	78	22.7	1	3	270	0.00	30.207 
20:40	28.5	28.5	28.5	78	22.5	1	3	270	0.00	30.207 
20:45	28.4	28.4	28.4	78	22.4	1	3	270	0.00	30.210 
20:50	28.4	28.4	28.4	78	22.4	1	4	270	0.00	30.210 
20:55	28.2	28.2	28.2	79	22.5	1	2	292	0.00	30.210 
21:00	28.2	28.2	28.2	79	22.5	1	4	292	0.00	30.219 
21:05	28.1	28.1	28.1	79	22.4	1	3	292	0.00	30.219 
21:10	27.9	27.9	27.9	80	22.5	1	3	292	0.00	30.219 
21:15	27.8	27.8	27.8	80	22.4	1	4	292	0.00	30.215 
21:20	27.8	27.8	27.8	80	22.4	0	2	292	0.00	30.215 
21:25	27.6	27.6	27.6	81	22.5	0	2	292	0.00	30.215 
21:30	27.5	27.5	27.5	81	22.4	1	3	292	0.00	30.219 
21:35	27.5	27.5	27.5	81	22.4	1	3	292	0.00	30.219 
21:40	27.3	27.3	27.3	81	22.3	1	3	292	0.00	30.219 
21:45	27.3	27.3	27.3	81	22.3	1	3	292	0.00	30.222 
21:50	27.2	27.2	27.2	82	22.4	0	2	292	0.00	30.222 
21:55	27.2	27.2	27.2	82	22.4	0	2	292	0.00	30.222 
22:00	27.0	27.0	27.0	82	22.3	1	3	292	0.00	30.222 
22:05	27.0	27.0	27.0	82	22.3	0	2	292	0.00	30.222 
22:10	26.9	26.9	26.9	82	22.2	0	2	292	0.00	30.222 
22:15	26.7	26.7	26.7	82	22.0	0	1	292	0.00	30.220 
22:20	26.6	26.6	26.6	83	22.1	0	2	292	0.00	30.220 
22:25	26.6	26.6	26.6	83	22.1	0	2	292	0.00	30.220 
22:30	26.4	26.4	26.4	83	22.0	1	2	292	0.00	30.219 
22:35	26.4	26.4	26.4	83	22.0	0	3	292	0.00	30.219 
22:40	26.4	26.4	26.4	83	22.0	1	3	292	0.00	30.219 
22:45	26.3	26.3	26.3	84	22.1	1	3	292	0.00	30.219 
22:50	26.3	26.3	26.3	84	22.1	1	2	270	0.00	30.219 
22:55	26.3	26.3	26.3	84	22.1	0	2	270	0.00	30.219 
23:00	26.1	26.1	26.1	84	21.9	0	2	270	0.00	30.218 
23:05	26.1	26.1	26.1	84	21.9	0	2	270	0.00	30.218 
23:10	26.1	26.1	26.1	84	21.9	1	2	270	0.00	30.218 
23:15	26.0	26.0	26.0	84	21.8	0	2	270	0.00	30.215 
23:20	26.0	26.0	26.0	84	21.8	0	3	270	0.00	30.215 
23:25	26.0	26.0	26.0	84	21.8	1	3	270	0.00	30.215 
23:30	26.0	26.0	26.0	85	22.1	1	3	270	0.00	30.214 
23:35	26.0	26.0	26.0	85	22.1	0	3	270	0.00	30.214 
23:40	25.8	25.8	25.8	85	21.9	0	2	270	0.00	30.214 
23:45	25.8	25.8	25.8	85	21.9	0	3	270	0.00	30.216 
23:50	25.7	25.7	25.7	85	21.8	0	2	270	0.00	30.216 
23:55	25.7	25.7	25.7	85	21.8	1	2	270	0.00	30.216 

CoCoRaHS
IN-AL-39
A2 Web Hosting
Creative Commons License
GoDaddy
search engine by freefind advanced

loaded 2018-11-15 03:44:26 • last modified 2010-11-18 10:43:29
Privacy PolicyDisclaimer
• wx.awcolley.com is powered by PmWiki v.2002016 •
• all content (unless otherwise noted) © 2018 A W Colley